Terminal Aerodrome Forecast
Issued by NWS Memphis, TN

Home | Current Version | Previous Version | Text Only | Print | Product List | Glossary On
Versions: 1 2 3 4 5 6 7 8 9 10 11 12 13 14 15 16
000
FTUS44 KMEG 272331
TAFMKL
TAF
KMKL 272331Z 2800/2824 11009KT P6SM SCT150 BKN200
     FM280100 12012KT P6SM VCSH SCT050 OVC080
     FM280400 13013G22KT 5SM -SHRA BR SCT012 OVC030 WS020/16050KT
     FM281200 17011G17KT P6SM VCSH OVC012
     FM282100 20008KT P6SM OVC025=

USA.gov is the U.S. government's official web portal to all federal, state and local government web resources and services.